sensor_id;sensor_type;location;lat;lon;timestamp;temperature;humidity
21121;DHT22;12519;43.318;21.898;2023-06-26T00:04:13;22.7;99.0
21121;DHT22;12519;43.318;21.898;2023-06-26T00:08:49;22.7;99.0
21121;DHT22;12519;43.318;21.898;2023-06-26T00:13:26;22.7;99.0
21121;DHT22;12519;43.318;21.898;2023-06-26T00:18:03;22.7;99.0
21121;DHT22;12519;43.318;21.898;2023-06-26T00:22:40;22.7;99.0
21121;DHT22;12519;43.318;21.898;2023-06-26T00:27:17;22.7;99.0
21121;DHT22;12519;43.318;21.898;2023-06-26T00:31:53;22.6;99.0
21121;DHT22;12519;43.318;21.898;2023-06-26T00:36:29;22.6;99.0
21121;DHT22;12519;43.318;21.898;2023-06-26T00:41:06;22.6;99.0
21121;DHT22;12519;43.318;21.898;2023-06-26T00:45:42;22.6;99.0
21121;DHT22;12519;43.318;21.898;2023-06-26T00:50:19;22.6;99.0
21121;DHT22;12519;43.318;21.898;2023-06-26T00:54:57;22.6;99.0
21121;DHT22;12519;43.318;21.898;2023-06-26T00:59:35;22.5;99.0
21121;DHT22;12519;43.318;21.898;2023-06-26T01:04:12;22.5;99.0
21121;DHT22;12519;43.318;21.898;2023-06-26T01:08:51;22.4;100.0
21121;DHT22;12519;43.318;21.898;2023-06-26T01:13:31;22.4;100.0
21121;DHT22;12519;43.318;21.898;2023-06-26T01:18:13;22.4;100.0
21121;DHT22;12519;43.318;21.898;2023-06-26T01:23:07;22.4;100.0
21121;DHT22;12519;43.318;21.898;2023-06-26T01:28:14;22.4;100.0
21121;DHT22;12519;43.318;21.898;2023-06-26T01:32:56;22.4;100.0
21121;DHT22;12519;43.318;21.898;2023-06-26T01:37:37;22.4;100.0
21121;DHT22;12519;43.318;21.898;2023-06-26T01:42:14;22.4;100.0
21121;DHT22;12519;43.318;21.898;2023-06-26T01:47:00;22.4;100.0
21121;DHT22;12519;43.318;21.898;2023-06-26T01:51:59;22.4;100.0
21121;DHT22;12519;43.318;21.898;2023-06-26T01:56:54;22.4;100.0
21121;DHT22;12519;43.318;21.898;2023-06-26T02:01:35;22.4;100.0
21121;DHT22;12519;43.318;21.898;2023-06-26T02:06:11;22.4;100.0
21121;DHT22;12519;43.318;21.898;2023-06-26T02:10:48;22.4;100.0
21121;DHT22;12519;43.318;21.898;2023-06-26T02:15:24;22.4;100.0
21121;DHT22;12519;43.318;21.898;2023-06-26T02:20:01;22.5;100.0
21121;DHT22;12519;43.318;21.898;2023-06-26T02:24:38;22.5;100.0
21121;DHT22;12519;43.318;21.898;2023-06-26T02:29:15;22.6;99.0
21121;DHT22;12519;43.318;21.898;2023-06-26T02:33:51;22.6;99.0
21121;DHT22;12519;43.318;21.898;2023-06-26T02:38:28;22.6;99.0
21121;DHT22;12519;43.318;21.898;2023-06-26T02:43:06;22.6;99.0
21121;DHT22;12519;43.318;21.898;2023-06-26T02:47:43;22.6;99.0
21121;DHT22;12519;43.318;21.898;2023-06-26T02:52:20;22.6;99.0
21121;DHT22;12519;43.318;21.898;2023-06-26T02:56:57;22.6;99.0
21121;DHT22;12519;43.318;21.898;2023-06-26T03:01:33;22.7;99.0
21121;DHT22;12519;43.318;21.898;2023-06-26T03:06:10;22.7;99.0
21121;DHT22;12519;43.318;21.898;2023-06-26T03:10:47;22.6;99.0
21121;DHT22;12519;43.318;21.898;2023-06-26T03:15:23;22.6;99.0
21121;DHT22;12519;43.318;21.898;2023-06-26T03:20:00;22.5;99.0
21121;DHT22;12519;43.318;21.898;2023-06-26T03:24:37;22.5;99.0
21121;DHT22;12519;43.318;21.898;2023-06-26T03:29:13;22.4;100.0
21121;DHT22;12519;43.318;21.898;2023-06-26T03:33:49;22.4;100.0
21121;DHT22;12519;43.318;21.898;2023-06-26T03:38:26;22.4;100.0
21121;DHT22;12519;43.318;21.898;2023-06-26T03:43:02;22.3;100.0
21121;DHT22;12519;43.318;21.898;2023-06-26T03:47:39;22.3;100.0
21121;DHT22;12519;43.318;21.898;2023-06-26T03:52:15;22.4;100.0
21121;DHT22;12519;43.318;21.898;2023-06-26T03:56:52;22.4;100.0
21121;DHT22;12519;43.318;21.898;2023-06-26T04:01:28;22.4;100.0
21121;DHT22;12519;43.318;21.898;2023-06-26T04:06:05;22.4;100.0
21121;DHT22;12519;43.318;21.898;2023-06-26T04:10:42;22.3;100.0
21121;DHT22;12519;43.318;21.898;2023-06-26T04:15:19;22.3;100.0
21121;DHT22;12519;43.318;21.898;2023-06-26T04:19:55;22.2;100.0
21121;DHT22;12519;43.318;21.898;2023-06-26T04:24:32;22.2;100.0
21121;DHT22;12519;43.318;21.898;2023-06-26T04:29:09;22.2;100.0
21121;DHT22;12519;43.318;21.898;2023-06-26T04:33:46;22.6;100.0
21121;DHT22;12519;43.318;21.898;2023-06-26T04:38:23;22.6;100.0
21121;DHT22;12519;43.318;21.898;2023-06-26T04:42:59;23.0;100.0
21121;DHT22;12519;43.318;21.898;2023-06-26T04:47:35;23.0;100.0
21121;DHT22;12519;43.318;21.898;2023-06-26T04:52:11;23.2;99.0
21121;DHT22;12519;43.318;21.898;2023-06-26T04:56:48;23.2;99.0
21121;DHT22;12519;43.318;21.898;2023-06-26T05:01:24;23.4;99.0
21121;DHT22;12519;43.318;21.898;2023-06-26T05:06:00;23.4;99.0
21121;DHT22;12519;43.318;21.898;2023-06-26T05:10:37;23.4;98.0
21121;DHT22;12519;43.318;21.898;2023-06-26T05:15:13;23.4;98.0
21121;DHT22;12519;43.318;21.898;2023-06-26T05:19:50;23.5;98.0
21121;DHT22;12519;43.318;21.898;2023-06-26T05:24:28;23.5;98.0
21121;DHT22;12519;43.318;21.898;2023-06-26T05:29:10;23.5;98.0
21121;DHT22;12519;43.318;21.898;2023-06-26T05:33:49;23.4;98.0
21121;DHT22;12519;43.318;21.898;2023-06-26T05:38:39;23.4;98.0
21121;DHT22;12519;43.318;21.898;2023-06-26T05:43:19;23.4;98.0
21121;DHT22;12519;43.318;21.898;2023-06-26T05:47:59;23.4;98.0
21121;DHT22;12519;43.318;21.898;2023-06-26T05:52:37;23.4;98.0
21121;DHT22;12519;43.318;21.898;2023-06-26T05:57:18;23.4;98.0
21121;DHT22;12519;43.318;21.898;2023-06-26T06:11:08;24.1;94.0
21121;DHT22;12519;43.318;21.898;2023-06-26T06:15:44;24.1;94.0
21121;DHT22;12519;43.318;21.898;2023-06-26T06:20:21;24.1;94.0
21121;DHT22;12519;43.318;21.898;2023-06-26T06:24:57;24.1;94.0
21121;DHT22;12519;43.318;21.898;2023-06-26T06:29:33;24.2;93.0
21121;DHT22;12519;43.318;21.898;2023-06-26T06:34:10;24.2;93.0
21121;DHT22;12519;43.318;21.898;2023-06-26T06:38:46;24.2;93.0
21121;DHT22;12519;43.318;21.898;2023-06-26T06:43:23;24.2;92.0
21121;DHT22;12519;43.318;21.898;2023-06-26T06:47:59;24.2;92.0
21121;DHT22;12519;43.318;21.898;2023-06-26T06:52:40;24.4;92.0
21121;DHT22;12519;43.318;21.898;2023-06-26T06:57:16;24.4;92.0
21121;DHT22;12519;43.318;21.898;2023-06-26T07:01:53;24.6;91.0
21121;DHT22;12519;43.318;21.898;2023-06-26T07:06:30;24.6;91.0
21121;DHT22;12519;43.318;21.898;2023-06-26T07:11:06;24.8;90.0
21121;DHT22;12519;43.318;21.898;2023-06-26T07:15:43;24.8;90.0
21121;DHT22;12519;43.318;21.898;2023-06-26T07:20:19;25.1;89.0
21121;DHT22;12519;43.318;21.898;2023-06-26T07:24:55;25.1;89.0
21121;DHT22;12519;43.318;21.898;2023-06-26T07:29:31;25.1;89.0
21121;DHT22;12519;43.318;21.898;2023-06-26T07:34:08;25.2;88.0
21121;DHT22;12519;43.318;21.898;2023-06-26T07:38:44;25.2;88.0
21121;DHT22;12519;43.318;21.898;2023-06-26T07:43:20;25.4;88.0
21121;DHT22;12519;43.318;21.898;2023-06-26T07:47:57;25.4;88.0
21121;DHT22;12519;43.318;21.898;2023-06-26T07:52:33;25.2;87.0
21121;DHT22;12519;43.318;21.898;2023-06-26T07:57:12;25.2;87.0
21121;DHT22;12519;43.318;21.898;2023-06-26T08:01:52;25.1;86.0
21121;DHT22;12519;43.318;21.898;2023-06-26T08:06:33;25.1;86.0
21121;DHT22;12519;43.318;21.898;2023-06-26T08:11:10;25.0;86.0
21121;DHT22;12519;43.318;21.898;2023-06-26T08:15:47;25.0;86.0
21121;DHT22;12519;43.318;21.898;2023-06-26T08:20:24;24.8;86.0
21121;DHT22;12519;43.318;21.898;2023-06-26T08:25:02;24.8;86.0
21121;DHT22;12519;43.318;21.898;2023-06-26T08:29:41;24.8;86.0
21121;DHT22;12519;43.318;21.898;2023-06-26T08:34:17;25.0;86.0
21121;DHT22;12519;43.318;21.898;2023-06-26T08:38:54;25.0;86.0
21121;DHT22;12519;43.318;21.898;2023-06-26T08:43:30;25.1;86.0
21121;DHT22;12519;43.318;21.898;2023-06-26T08:48:09;25.1;86.0
21121;DHT22;12519;43.318;21.898;2023-06-26T08:53:04;25.2;84.0
21121;DHT22;12519;43.318;21.898;2023-06-26T08:57:50;25.2;84.0
21121;DHT22;12519;43.318;21.898;2023-06-26T09:02:28;25.3;83.0
21121;DHT22;12519;43.318;21.898;2023-06-26T09:07:07;25.3;83.0
21121;DHT22;12519;43.318;21.898;2023-06-26T09:11:44;25.5;83.0
21121;DHT22;12519;43.318;21.898;2023-06-26T09:16:25;25.5;83.0
21121;DHT22;12519;43.318;21.898;2023-06-26T09:21:09;25.6;82.0
21121;DHT22;12519;43.318;21.898;2023-06-26T09:25:47;25.6;82.0
21121;DHT22;12519;43.318;21.898;2023-06-26T09:30:25;25.7;81.0
21121;DHT22;12519;43.318;21.898;2023-06-26T09:35:04;25.7;81.0
21121;DHT22;12519;43.318;21.898;2023-06-26T09:39:41;25.7;81.0
21121;DHT22;12519;43.318;21.898;2023-06-26T09:44:19;25.8;80.0
21121;DHT22;12519;43.318;21.898;2023-06-26T09:49:04;25.8;80.0
21121;DHT22;12519;43.318;21.898;2023-06-26T09:53:42;26.0;79.0
21121;DHT22;12519;43.318;21.898;2023-06-26T09:58:19;26.0;79.0
21121;DHT22;12519;43.318;21.898;2023-06-26T10:03:00;26.1;78.0
21121;DHT22;12519;43.318;21.898;2023-06-26T10:07:39;26.1;78.0
21121;DHT22;12519;43.318;21.898;2023-06-26T10:12:27;26.2;77.0
21121;DHT22;12519;43.318;21.898;2023-06-26T10:17:15;26.2;77.0
21121;DHT22;12519;43.318;21.898;2023-06-26T10:21:58;26.4;76.0
21121;DHT22;12519;43.318;21.898;2023-06-26T10:26:45;26.4;76.0
21121;DHT22;12519;43.318;21.898;2023-06-26T10:31:37;26.6;76.0
21121;DHT22;12519;43.318;21.898;2023-06-26T10:36:31;26.6;76.0
21121;DHT22;12519;43.318;21.898;2023-06-26T10:41:12;26.7;75.0
21121;DHT22;12519;43.318;21.898;2023-06-26T10:45:54;26.7;75.0
21121;DHT22;12519;43.318;21.898;2023-06-26T10:50:34;26.8;74.0
21121;DHT22;12519;43.318;21.898;2023-06-26T10:55:15;26.8;74.0
21121;DHT22;12519;43.318;21.898;2023-06-26T11:00:11;26.8;74.0
21121;DHT22;12519;43.318;21.898;2023-06-26T11:04:53;26.8;74.0
21121;DHT22;12519;43.318;21.898;2023-06-26T11:09:57;26.8;74.0
21121;DHT22;12519;43.318;21.898;2023-06-26T11:14:37;27.0;72.0
21121;DHT22;12519;43.318;21.898;2023-06-26T11:19:17;27.0;72.0
21121;DHT22;12519;43.318;21.898;2023-06-26T11:23:59;27.1;71.0
21121;DHT22;12519;43.318;21.898;2023-06-26T11:28:36;27.1;71.0
21121;DHT22;12519;43.318;21.898;2023-06-26T11:33:13;27.3;71.0
21121;DHT22;12519;43.318;21.898;2023-06-26T11:37:49;27.3;71.0
21121;DHT22;12519;43.318;21.898;2023-06-26T11:42:25;27.5;70.0
21121;DHT22;12519;43.318;21.898;2023-06-26T11:47:05;27.5;70.0
21121;DHT22;12519;43.318;21.898;2023-06-26T11:51:42;27.6;70.0
21121;DHT22;12519;43.318;21.898;2023-06-26T11:56:20;27.6;70.0
21121;DHT22;12519;43.318;21.898;2023-06-26T12:00:57;27.7;69.0
21121;DHT22;12519;43.318;21.898;2023-06-26T12:05:34;27.7;69.0
21121;DHT22;12519;43.318;21.898;2023-06-26T12:10:14;27.8;70.0
21121;DHT22;12519;43.318;21.898;2023-06-26T12:14:55;27.8;70.0
21121;DHT22;12519;43.318;21.898;2023-06-26T12:19:37;27.8;70.0
21121;DHT22;12519;43.318;21.898;2023-06-26T12:24:23;27.9;70.0
21121;DHT22;12519;43.318;21.898;2023-06-26T12:29:05;27.9;70.0
21121;DHT22;12519;43.318;21.898;2023-06-26T12:33:45;28.0;70.0
21121;DHT22;12519;43.318;21.898;2023-06-26T12:38:21;28.0;70.0
21121;DHT22;12519;43.318;21.898;2023-06-26T12:42:58;28.0;70.0
21121;DHT22;12519;43.318;21.898;2023-06-26T12:47:35;28.0;70.0
21121;DHT22;12519;43.318;21.898;2023-06-26T12:52:15;28.0;70.0
21121;DHT22;12519;43.318;21.898;2023-06-26T12:56:53;28.0;70.0
21121;DHT22;12519;43.318;21.898;2023-06-26T13:01:30;27.9;70.0
21121;DHT22;12519;43.318;21.898;2023-06-26T13:06:06;27.9;70.0
21121;DHT22;12519;43.318;21.898;2023-06-26T13:10:43;28.0;70.0
21121;DHT22;12519;43.318;21.898;2023-06-26T13:15:20;28.0;70.0
21121;DHT22;12519;43.318;21.898;2023-06-26T13:19:57;28.0;70.0
21121;DHT22;12519;43.318;21.898;2023-06-26T13:24:34;28.0;70.0
21121;DHT22;12519;43.318;21.898;2023-06-26T13:29:11;28.0;70.0
21121;DHT22;12519;43.318;21.898;2023-06-26T13:33:48;28.0;70.0
21121;DHT22;12519;43.318;21.898;2023-06-26T13:38:25;28.0;70.0
21121;DHT22;12519;43.318;21.898;2023-06-26T13:52:16;28.3;68.0
21121;DHT22;12519;43.318;21.898;2023-06-26T13:56:52;28.3;68.0
21121;DHT22;12519;43.318;21.898;2023-06-26T14:01:29;28.3;68.0
21121;DHT22;12519;43.318;21.898;2023-06-26T14:06:06;28.3;68.0
21121;DHT22;12519;43.318;21.898;2023-06-26T14:10:42;28.3;68.0
21121;DHT22;12519;43.318;21.898;2023-06-26T14:15:19;28.3;68.0
21121;DHT22;12519;43.318;21.898;2023-06-26T14:19:55;28.3;68.0
21121;DHT22;12519;43.318;21.898;2023-06-26T14:24:32;28.3;68.0
21121;DHT22;12519;43.318;21.898;2023-06-26T14:29:08;28.3;68.0
21121;DHT22;12519;43.318;21.898;2023-06-26T14:33:45;28.2;68.0
21121;DHT22;12519;43.318;21.898;2023-06-26T14:38:22;28.2;68.0
21121;DHT22;12519;43.318;21.898;2023-06-26T14:42:59;28.1;68.0
21121;DHT22;12519;43.318;21.898;2023-06-26T14:47:35;28.1;68.0
21121;DHT22;12519;43.318;21.898;2023-06-26T14:52:12;28.0;69.0
21121;DHT22;12519;43.318;21.898;2023-06-26T14:56:49;28.0;69.0
21121;DHT22;12519;43.318;21.898;2023-06-26T15:01:26;28.0;69.0
21121;DHT22;12519;43.318;21.898;2023-06-26T15:06:03;28.0;69.0
21121;DHT22;12519;43.318;21.898;2023-06-26T15:10:39;27.9;69.0
21121;DHT22;12519;43.318;21.898;2023-06-26T15:15:16;27.9;69.0
21121;DHT22;12519;43.318;21.898;2023-06-26T15:19:52;27.9;69.0
21121;DHT22;12519;43.318;21.898;2023-06-26T15:24:28;27.8;69.0
21121;DHT22;12519;43.318;21.898;2023-06-26T15:29:04;27.8;69.0
21121;DHT22;12519;43.318;21.898;2023-06-26T15:33:41;27.8;69.0
21121;DHT22;12519;43.318;21.898;2023-06-26T15:38:17;27.8;69.0
21121;DHT22;12519;43.318;21.898;2023-06-26T15:42:54;27.7;69.0
21121;DHT22;12519;43.318;21.898;2023-06-26T15:47:30;27.7;69.0
21121;DHT22;12519;43.318;21.898;2023-06-26T15:52:07;27.7;69.0
21121;DHT22;12519;43.318;21.898;2023-06-26T15:56:44;27.7;69.0
21121;DHT22;12519;43.318;21.898;2023-06-26T16:15:12;27.5;70.0
21121;DHT22;12519;43.318;21.898;2023-06-26T16:19:49;27.5;70.0
21121;DHT22;12519;43.318;21.898;2023-06-26T16:24:26;27.5;70.0
21121;DHT22;12519;43.318;21.898;2023-06-26T16:29:03;27.5;70.0
21121;DHT22;12519;43.318;21.898;2023-06-26T16:33:39;27.3;71.0
21121;DHT22;12519;43.318;21.898;2023-06-26T16:38:16;27.3;71.0
21121;DHT22;12519;43.318;21.898;2023-06-26T16:42:53;27.1;73.0
21121;DHT22;12519;43.318;21.898;2023-06-26T16:47:29;27.1;73.0
21121;DHT22;12519;43.318;21.898;2023-06-26T16:52:08;26.9;74.0
21121;DHT22;12519;43.318;21.898;2023-06-26T16:56:44;26.9;74.0
21121;DHT22;12519;43.318;21.898;2023-06-26T17:01:21;26.7;75.0
21121;DHT22;12519;43.318;21.898;2023-06-26T17:05:57;26.7;75.0
21121;DHT22;12519;43.318;21.898;2023-06-26T17:10:35;26.7;75.0
21121;DHT22;12519;43.318;21.898;2023-06-26T17:15:12;26.6;76.0
21121;DHT22;12519;43.318;21.898;2023-06-26T17:19:49;26.6;76.0
21121;DHT22;12519;43.318;21.898;2023-06-26T17:24:26;26.4;77.0
21121;DHT22;12519;43.318;21.898;2023-06-26T17:29:03;26.4;77.0
21121;DHT22;12519;43.318;21.898;2023-06-26T17:33:39;26.4;78.0
21121;DHT22;12519;43.318;21.898;2023-06-26T17:38:16;26.4;78.0
21121;DHT22;12519;43.318;21.898;2023-06-26T17:42:53;26.3;78.0
21121;DHT22;12519;43.318;21.898;2023-06-26T17:47:29;26.3;78.0
21121;DHT22;12519;43.318;21.898;2023-06-26T17:52:08;26.2;79.0
21121;DHT22;12519;43.318;21.898;2023-06-26T17:56:45;26.2;79.0
21121;DHT22;12519;43.318;21.898;2023-06-26T18:01:21;26.2;79.0
21121;DHT22;12519;43.318;21.898;2023-06-26T18:05:58;26.2;79.0
21121;DHT22;12519;43.318;21.898;2023-06-26T18:10:34;26.2;79.0
21121;DHT22;12519;43.318;21.898;2023-06-26T18:15:10;26.2;80.0
21121;DHT22;12519;43.318;21.898;2023-06-26T18:19:47;26.2;80.0
21121;DHT22;12519;43.318;21.898;2023-06-26T18:24:23;26.1;80.0
21121;DHT22;12519;43.318;21.898;2023-06-26T18:29:00;26.1;80.0
21121;DHT22;12519;43.318;21.898;2023-06-26T18:33:37;26.0;80.0
21121;DHT22;12519;43.318;21.898;2023-06-26T18:38:14;26.0;80.0
21121;DHT22;12519;43.318;21.898;2023-06-26T18:42:50;25.8;80.0
21121;DHT22;12519;43.318;21.898;2023-06-26T18:47:26;25.8;80.0
21121;DHT22;12519;43.318;21.898;2023-06-26T18:52:05;25.6;80.0
21121;DHT22;12519;43.318;21.898;2023-06-26T18:56:42;25.6;80.0
21121;DHT22;12519;43.318;21.898;2023-06-26T19:01:19;25.4;81.0
21121;DHT22;12519;43.318;21.898;2023-06-26T19:05:57;25.4;81.0
21121;DHT22;12519;43.318;21.898;2023-06-26T19:10:33;25.4;81.0
21121;DHT22;12519;43.318;21.898;2023-06-26T19:15:11;25.6;83.0
21121;DHT22;12519;43.318;21.898;2023-06-26T19:19:47;25.6;83.0
21121;DHT22;12519;43.318;21.898;2023-06-26T19:24:24;25.8;84.0
21121;DHT22;12519;43.318;21.898;2023-06-26T19:29:02;25.8;84.0
21121;DHT22;12519;43.318;21.898;2023-06-26T19:33:38;25.8;84.0
21121;DHT22;12519;43.318;21.898;2023-06-26T19:38:14;25.8;84.0
21121;DHT22;12519;43.318;21.898;2023-06-26T19:42:51;25.9;83.0
21121;DHT22;12519;43.318;21.898;2023-06-26T19:47:27;25.9;83.0
21121;DHT22;12519;43.318;21.898;2023-06-26T19:52:06;25.7;83.0
21121;DHT22;12519;43.318;21.898;2023-06-26T19:56:43;25.7;83.0
21121;DHT22;12519;43.318;21.898;2023-06-26T20:01:20;25.5;83.0
21121;DHT22;12519;43.318;21.898;2023-06-26T20:05:57;25.5;83.0
21121;DHT22;12519;43.318;21.898;2023-06-26T20:10:35;25.5;83.0
21121;DHT22;12519;43.318;21.898;2023-06-26T20:15:12;25.4;84.0
21121;DHT22;12519;43.318;21.898;2023-06-26T20:19:49;25.4;84.0
21121;DHT22;12519;43.318;21.898;2023-06-26T20:24:26;25.3;84.0
21121;DHT22;12519;43.318;21.898;2023-06-26T20:29:03;25.3;84.0
21121;DHT22;12519;43.318;21.898;2023-06-26T20:33:40;25.2;84.0
21121;DHT22;12519;43.318;21.898;2023-06-26T20:38:16;25.2;84.0
21121;DHT22;12519;43.318;21.898;2023-06-26T20:42:54;25.0;84.0
21121;DHT22;12519;43.318;21.898;2023-06-26T20:47:33;25.0;84.0
21121;DHT22;12519;43.318;21.898;2023-06-26T20:52:17;24.6;85.0
21121;DHT22;12519;43.318;21.898;2023-06-26T20:56:53;24.6;85.0
21121;DHT22;12519;43.318;21.898;2023-06-26T21:01:30;24.2;85.0
21121;DHT22;12519;43.318;21.898;2023-06-26T21:06:06;24.2;85.0
21121;DHT22;12519;43.318;21.898;2023-06-26T21:10:43;24.2;85.0
21121;DHT22;12519;43.318;21.898;2023-06-26T21:15:20;24.0;86.0
21121;DHT22;12519;43.318;21.898;2023-06-26T21:19:56;24.0;86.0
21121;DHT22;12519;43.318;21.898;2023-06-26T21:24:33;23.8;86.0
21121;DHT22;12519;43.318;21.898;2023-06-26T21:29:10;23.8;86.0
21121;DHT22;12519;43.318;21.898;2023-06-26T21:33:46;23.8;87.0
21121;DHT22;12519;43.318;21.898;2023-06-26T21:38:23;23.8;87.0
21121;DHT22;12519;43.318;21.898;2023-06-26T21:43:01;23.7;87.0
21121;DHT22;12519;43.318;21.898;2023-06-26T21:47:38;23.7;87.0
21121;DHT22;12519;43.318;21.898;2023-06-26T21:52:15;23.5;88.0
21121;DHT22;12519;43.318;21.898;2023-06-26T21:56:52;23.5;88.0
21121;DHT22;12519;43.318;21.898;2023-06-26T22:01:29;23.4;88.0
21121;DHT22;12519;43.318;21.898;2023-06-26T22:06:06;23.4;88.0
21121;DHT22;12519;43.318;21.898;2023-06-26T22:10:42;23.4;88.0
21121;DHT22;12519;43.318;21.898;2023-06-26T22:15:19;23.2;88.0
21121;DHT22;12519;43.318;21.898;2023-06-26T22:19:56;23.2;88.0
21121;DHT22;12519;43.318;21.898;2023-06-26T22:24:33;23.1;88.0
21121;DHT22;12519;43.318;21.898;2023-06-26T22:29:09;23.1;88.0
21121;DHT22;12519;43.318;21.898;2023-06-26T22:33:46;23.0;89.0
21121;DHT22;12519;43.318;21.898;2023-06-26T22:38:23;23.0;89.0
21121;DHT22;12519;43.318;21.898;2023-06-26T22:42:59;22.9;89.0
21121;DHT22;12519;43.318;21.898;2023-06-26T22:47:42;22.9;89.0
21121;DHT22;12519;43.318;21.898;2023-06-26T22:52:21;22.8;90.0
21121;DHT22;12519;43.318;21.898;2023-06-26T22:56:58;22.8;90.0
21121;DHT22;12519;43.318;21.898;2023-06-26T23:01:35;22.6;90.0
21121;DHT22;12519;43.318;21.898;2023-06-26T23:06:12;22.6;90.0
21121;DHT22;12519;43.318;21.898;2023-06-26T23:10:48;22.6;90.0
21121;DHT22;12519;43.318;21.898;2023-06-26T23:15:25;22.5;90.0
21121;DHT22;12519;43.318;21.898;2023-06-26T23:20:01;22.5;90.0
21121;DHT22;12519;43.318;21.898;2023-06-26T23:24:38;22.3;91.0
21121;DHT22;12519;43.318;21.898;2023-06-26T23:29:15;22.3;91.0
21121;DHT22;12519;43.318;21.898;2023-06-26T23:33:52;22.2;91.0
21121;DHT22;12519;43.318;21.898;2023-06-26T23:38:28;22.2;91.0
21121;DHT22;12519;43.318;21.898;2023-06-26T23:43:04;22.2;91.0
21121;DHT22;12519;43.318;21.898;2023-06-26T23:47:40;22.2;91.0
21121;DHT22;12519;43.318;21.898;2023-06-26T23:52:17;22.2;91.0
21121;DHT22;12519;43.318;21.898;2023-06-26T23:56:54;22.2;91.0
